Time;durP1;ratioP1;P1;durP2;ratioP2;P2;SDS_P1;SDS_P2;PMS_P1;PMS_P2;Temp;Humidity;BMP_temperature;BMP_pressure;BME280_temperature;BME280_humidity;BME280_pressure;Samples;Min_cycle;Max_cycle;Signal;HPM_P1;HPM_P2
2021/03/07 00:08:42;;;;;;;11.10;6.33;;;;;;;0.11;63.46;100200.44;511281;1099;114593;-67
2021/03/07 00:19:01;;;;;;;11.20;6.13;;;;;;;0.11;64.00;100192.69;511272;1097;115255;-67
2021/03/07 00:29:06;;;;;;;10.43;5.77;;;;;;;0.17;64.84;100184.02;511312;1099;115289;-67
2021/03/07 00:39:10;;;;;;;11.70;5.70;;;;;;;0.19;64.28;100169.38;512030;1099;114166;-67
2021/03/07 00:49:18;;;;;;;;;;;;;;;0.19;64.77;100146.14;511576;1099;114468;-67
2021/03/07 00:59:23;;;;;;;10.47;4.77;;;;;;;0.16;65.45;100125.49;511545;1099;101176;-66
2021/03/07 01:09:26;;;;;;;6.73;4.43;;;;;;;0.15;65.63;100115.20;511728;1099;114084;-68
2021/03/07 01:19:39;;;;;;;5.63;4.40;;;;;;;0.15;65.83;100095.38;511844;1099;113990;-67
2021/03/07 01:29:43;;;;;;;6.87;4.17;;;;;;;0.15;65.43;100087.63;512088;1098;113988;-66
2021/03/07 01:39:47;;;;;;;7.15;3.90;;;;;;;0.17;66.24;100069.54;512036;1099;113919;-67
2021/03/07 01:50:01;;;;;;;5.93;3.97;;;;;;;0.21;66.16;100053.98;511606;1098;113911;-65
2021/03/07 02:00:09;;;;;;;11.07;3.60;;;;;;;0.24;66.40;100047.93;511917;1098;115150;-66
2021/03/07 02:10:19;;;;;;;7.17;4.23;;;;;;;0.26;67.18;100034.09;511144;1099;115142;-66
2021/03/07 02:20:27;;;;;;;6.20;3.40;;;;;;;0.28;66.37;100021.17;511888;1099;115345;-67
2021/03/07 02:30:36;;;;;;;6.70;3.20;;;;;;;0.31;66.91;100000.45;512251;1099;113897;-68
2021/03/07 02:40:40;;;;;;;5.27;2.97;;;;;;;0.36;66.25;99996.08;511991;1099;113994;-66
2021/03/07 02:50:46;;;;;;;6.00;3.07;;;;;;;0.39;67.02;99969.32;512318;1099;113996;-67
2021/03/07 03:00:54;;;;;;;3.93;2.57;;;;;;;0.45;66.09;99969.23;512161;1099;114166;-68
2021/03/07 03:11:01;;;;;;;4.37;3.00;;;;;;;0.52;66.04;99941.56;512009;1099;114416;-68
2021/03/07 03:21:12;;;;;;;3.40;3.10;;;;;;;0.54;66.35;99930.33;511964;1099;114231;-67
2021/03/07 03:31:16;;;;;;;3.93;2.90;;;;;;;0.59;66.16;99935.42;512309;1097;114681;-67
2021/03/07 03:41:22;;;;;;;3.53;2.97;;;;;;;0.64;66.45;99928.42;512545;1099;114601;-66
2021/03/07 03:51:37;;;;;;;4.43;2.53;;;;;;;0.67;65.39;99914.60;511934;1098;114043;-67
2021/03/07 04:01:41;;;;;;;5.13;3.37;;;;;;;0.71;65.99;99902.48;511793;1099;114687;-66
2021/03/07 04:11:46;;;;;;;3.67;2.50;;;;;;;0.76;65.25;99903.23;512411;1098;114345;-67
2021/03/07 04:21:53;;;;;;;4.00;1.97;;;;;;;0.76;65.00;99914.44;512193;1099;113951;-68
2021/03/07 04:31:57;;;;;;;4.05;3.00;;;;;;;0.79;65.35;99896.28;512203;1099;114825;-67
2021/03/07 04:42:03;;;;;;;8.07;2.77;;;;;;;0.82;64.65;99882.45;512118;1098;115238;-67
2021/03/07 04:52:14;;;;;;;5.03;2.60;;;;;;;0.83;64.12;99843.63;511858;1098;114272;-68
2021/03/07 05:02:18;;;;;;;3.13;2.60;;;;;;;0.86;64.43;99880.63;512107;1099;115233;-67
2021/03/07 05:12:23;;;;;;;6.27;3.10;;;;;;;0.86;64.41;99873.74;511771;1098;113759;-66
2021/03/07 05:22:40;;;;;;;;;;;;;;;0.85;64.25;99864.28;512172;1099;115497;-65
2021/03/07 05:32:44;;;;;;;4.33;3.47;;;;;;;0.85;64.53;99851.36;512327;1098;100869;-66
2021/03/07 05:42:48;;;;;;;4.00;2.35;;;;;;;0.87;64.32;99846.17;512305;1099;113799;-66
2021/03/07 05:53:01;;;;;;;6.80;3.23;;;;;;;0.90;65.29;99840.93;511691;1098;114722;-68
2021/03/07 06:03:08;;;;;;;3.77;3.30;;;;;;;0.94;64.95;99834.80;511830;1099;114337;-69
2021/03/07 06:13:11;;;;;;;;;;;;;;;0.94;64.78;99827.05;512073;1099;114833;-68
2021/03/07 06:23:36;;;;;;;5.33;3.43;;;;;;;0.95;65.97;99833.91;511979;1098;100708;-66
2021/03/07 06:33:40;;;;;;;3.80;3.37;;;;;;;0.95;65.43;99823.57;512036;1098;113724;-67
2021/03/07 06:43:44;;;;;;;4.90;3.75;;;;;;;0.97;65.96;99829.56;512564;1099;113832;-67
2021/03/07 06:53:48;;;;;;;4.43;3.57;;;;;;;0.99;65.95;99820.06;512328;1099;115418;-68
2021/03/07 07:03:58;;;;;;;3.87;3.40;;;;;;;1.02;64.99;99812.23;511929;1099;114939;-68
2021/03/07 07:14:02;;;;;;;4.67;4.17;;;;;;;1.03;65.62;99801.00;511766;1099;114495;-67
2021/03/07 07:24:11;;;;;;;9.43;5.30;;;;;;;1.07;65.86;99789.69;512144;1099;116054;-66
2021/03/07 07:34:19;;;;;;;8.20;4.60;;;;;;;1.10;65.79;99788.78;511739;1099;114686;-68
2021/03/07 07:44:32;;;;;;;6.50;5.17;;;;;;;1.09;65.95;99790.50;512353;1098;114015;-67
2021/03/07 07:54:54;;;;;;;6.27;4.83;;;;;;;1.10;65.36;99778.44;511996;1097;113827;-68
2021/03/07 08:04:59;;;;;;;7.70;4.80;;;;;;;1.11;65.85;99768.06;511874;1099;114473;-67
2021/03/07 08:15:23;;;;;;;7.17;4.90;;;;;;;1.18;65.48;99753.26;512126;1099;114587;-67
2021/03/07 08:26:04;;;;;;;7.67;5.43;;;;;;;1.25;65.41;99751.38;511714;1098;114382;-68
2021/03/07 08:36:16;;;;;;;7.47;4.87;;;;;;;1.39;64.51;99741.55;512086;1099;115538;-66
2021/03/07 08:46:23;;;;;;;8.27;5.23;;;;;;;1.50;64.46;99735.27;512299;1099;113747;-67
2021/03/07 08:56:27;;;;;;;7.40;4.97;;;;;;;1.53;64.96;99723.11;511927;1098;115718;-67
2021/03/07 09:06:34;;;;;;;7.80;6.20;;;;;;;1.60;64.88;99713.45;512103;1099;114203;-65
2021/03/07 09:16:43;;;;;;;6.70;5.57;;;;;;;1.69;64.18;99683.88;511957;1098;114802;-66
2021/03/07 09:26:47;;;;;;;5.73;5.13;;;;;;;1.78;64.03;99686.23;512254;1098;113860;-66
2021/03/07 09:36:51;;;;;;;7.55;5.10;;;;;;;1.75;63.84;99683.73;512291;1099;113762;-66
2021/03/07 09:46:55;;;;;;;7.27;6.27;;;;;;;1.68;64.93;99680.46;512068;1098;115439;-67
2021/03/07 09:57:02;;;;;;;;;;;;;;;1.72;63.94;99665.67;510987;1099;114811;-69
2021/03/07 10:18:19;;;;;;;8.43;6.03;;;;;;;1.73;64.54;99656.18;509957;1105;64943;-69
2021/03/07 10:28:27;;;;;;;9.03;6.83;;;;;;;1.70;64.14;99670.05;508954;1105;113229;-67
2021/03/07 10:38:32;;;;;;;8.90;6.73;;;;;;;1.69;63.96;99665.77;508999;1105;114019;-70
2021/03/07 10:48:38;;;;;;;8.83;6.60;;;;;;;1.53;64.41;99671.34;508580;1105;113671;-61
2021/03/07 10:58:41;;;;;;;11.43;7.50;;;;;;;1.53;64.28;99662.72;508759;1105;113283;-63
2021/03/07 11:08:45;;;;;;;9.60;5.63;;;;;;;1.59;64.44;99677.24;501650;1105;10001256;-62
2021/03/07 11:18:49;;;;;;;8.43;5.50;;;;;;;1.99;62.99;99641.67;509174;1104;113673;-64
2021/03/07 11:28:52;;;;;;;6.20;3.20;;;;;;;2.18;61.82;99645.45;508770;1105;113325;-62
2021/03/07 11:38:55;;;;;;;12.70;4.57;;;;;;;2.25;61.43;99638.34;508821;1105;113603;-63
2021/03/07 11:48:58;;;;;;;9.60;4.27;;;;;;;2.25;61.56;99625.39;508475;1104;113946;-63
2021/03/07 11:59:05;;;;;;;20.87;5.40;;;;;;;2.35;60.63;99610.41;508505;1105;113996;-62
2021/03/07 12:09:08;;;;;;;8.23;5.23;;;;;;;2.07;61.10;99614.65;508333;1105;113602;-63
2021/03/07 12:19:11;;;;;;;8.03;4.60;;;;;;;2.01;61.07;99596.71;508492;1105;113949;-63
2021/03/07 12:29:15;;;;;;;8.80;4.97;;;;;;;1.95;61.28;99578.74;508632;1105;114063;-62
2021/03/07 12:39:18;;;;;;;11.60;6.27;;;;;;;2.00;61.81;99555.30;508736;1105;115180;-64
2021/03/07 12:49:22;;;;;;;6.78;4.33;;;;;;;2.30;60.80;99555.30;508628;1105;113941;-64
2021/03/07 12:59:26;;;;;;;8.03;3.47;;;;;;;2.51;59.79;99556.36;508871;1105;113692;-65
2021/03/07 13:09:31;;;;;;;14.00;3.67;;;;;;;2.65;59.29;99540.38;508527;1105;113665;-66
2021/03/07 13:19:34;;;;;;;4.20;3.60;;;;;;;2.76;58.43;99533.10;508501;1105;113561;-65
2021/03/07 13:29:37;;;;;;;4.23;3.53;;;;;;;2.76;58.01;99525.32;508027;1105;113850;-65
2021/03/07 13:39:40;;;;;;;5.17;3.27;;;;;;;2.71;57.99;99523.77;508470;1104;113764;-67
2021/03/07 13:49:44;;;;;;;7.10;3.33;;;;;;;2.58;57.88;99502.58;508969;1105;113431;-66
2021/03/07 13:59:47;;;;;;;13.60;4.73;;;;;;;2.35;57.52;99488.61;508695;1105;113353;-66
2021/03/07 14:09:54;;;;;;;7.05;2.90;;;;;;;2.22;57.49;99488.17;508529;1105;113598;-66
2021/03/07 14:19:57;;;;;;;2.17;1.93;;;;;;;2.07;57.45;99481.72;508808;1105;113730;-65
2021/03/07 14:30:00;;;;;;;3.83;2.87;;;;;;;2.12;57.58;99468.63;508579;1104;114105;-67
2021/03/07 14:40:05;;;;;;;9.13;5.03;;;;;;;2.05;57.75;99462.79;508502;1105;113440;-66
2021/03/07 14:50:11;;;;;;;5.10;3.43;;;;;;;2.10;57.57;99451.39;508529;1105;113346;-67
2021/03/07 15:00:17;;;;;;;6.70;3.40;;;;;;;2.02;57.92;99458.54;508868;1105;113809;-66
2021/03/07 15:10:21;;;;;;;7.40;3.83;;;;;;;1.91;58.32;99460.61;509424;1105;114067;-66
2021/03/07 15:20:25;;;;;;;7.77;3.97;;;;;;;1.78;59.21;99449.77;508757;1105;113587;-66
2021/03/07 15:30:31;;;;;;;4.93;3.03;;;;;;;1.74;59.43;99433.50;508782;1104;114570;-66
2021/03/07 15:40:37;;;;;;;4.40;3.43;;;;;;;1.68;59.58;99425.91;508561;1104;113812;-66
2021/03/07 15:50:40;;;;;;;6.03;3.50;;;;;;;1.54;60.36;99409.06;508647;1105;113905;-65
2021/03/07 16:00:44;;;;;;;9.73;3.93;;;;;;;1.52;60.62;99417.75;508486;1104;113470;-66
2021/03/07 16:10:48;;;;;;;5.17;3.27;;;;;;;1.42;60.62;99414.59;508736;1105;114100;-66
2021/03/07 16:20:51;;;;;;;4.65;3.05;;;;;;;1.37;60.71;99411.28;508833;1105;113840;-65
2021/03/07 16:30:55;;;;;;;6.83;3.17;;;;;;;1.29;60.53;99392.56;508565;1105;114637;-66
2021/03/07 16:41:01;;;;;;;6.00;5.10;;;;;;;1.24;60.92;99387.52;508545;1104;113732;-66
2021/03/07 16:51:04;;;;;;;6.10;3.40;;;;;;;1.17;61.36;99386.86;509170;1105;114044;-67
2021/03/07 17:01:08;;;;;;;4.53;3.43;;;;;;;1.15;61.58;99390.37;508617;1105;113624;-66
2021/03/07 17:11:11;;;;;;;6.83;3.60;;;;;;;1.16;62.16;99392.06;508615;1105;113777;-66
2021/03/07 17:21:15;;;;;;;3.40;3.10;;;;;;;1.14;62.25;99397.27;509025;1105;113484;-65
2021/03/07 17:31:27;;;;;;;7.37;3.70;;;;;;;1.09;61.87;99381.88;509253;1105;113451;-65
2021/03/07 17:41:31;;;;;;;5.33;3.87;;;;;;;1.08;62.92;99398.28;508849;1105;113532;-67
2021/03/07 17:51:37;;;;;;;20.07;16.03;;;;;;;1.11;62.07;99394.77;508722;1105;114769;-68
2021/03/07 18:01:49;;;;;;;4.27;3.53;;;;;;;1.10;62.32;99382.73;508877;1105;113757;-67
2021/03/07 18:11:52;;;;;;;13.43;4.60;;;;;;;1.05;62.44;99369.11;508936;1105;113939;-64
2021/03/07 18:21:59;;;;;;;5.67;3.97;;;;;;;1.03;62.79;99370.86;508987;1104;113519;-65
2021/03/07 18:32:17;;;;;;;7.27;3.93;;;;;;;1.01;63.01;99367.48;508870;1105;113883;-65
2021/03/07 18:42:20;;;;;;;7.55;4.30;;;;;;;0.95;63.50;99360.73;508858;1104;114601;-67
2021/03/07 18:52:27;;;;;;;5.80;4.03;;;;;;;0.91;63.35;99361.73;509490;1105;113741;-68
2021/03/07 19:02:36;;;;;;;5.90;4.60;;;;;;;0.90;62.90;99372.96;508954;1105;113892;-66
2021/03/07 19:12:58;;;;;;;7.17;4.30;;;;;;;0.86;63.77;99354.09;508714;1105;113932;-66
2021/03/07 19:23:01;;;;;;;6.17;4.03;;;;;;;0.85;63.94;99370.50;508795;1105;113872;-67
2021/03/07 19:33:05;;;;;;;6.23;4.07;;;;;;;0.78;63.39;99364.66;508732;1105;113458;-66
2021/03/07 19:43:12;;;;;;;8.90;5.63;;;;;;;0.69;64.72;99358.01;509138;1105;113387;-66
2021/03/07 19:53:16;;;;;;;6.93;5.47;;;;;;;0.64;64.77;99359.02;508768;1104;113448;-66
2021/03/07 20:03:28;;;;;;;12.50;5.97;;;;;;;0.61;65.16;99367.69;508524;1105;114181;-67
2021/03/07 20:13:33;;;;;;;12.80;5.50;;;;;;;0.54;65.17;99355.81;508836;1105;113578;-66
2021/03/07 20:23:36;;;;;;;8.97;5.47;;;;;;;0.50;65.58;99355.05;508203;1104;113511;-65
2021/03/07 20:33:48;;;;;;;10.57;5.17;;;;;;;0.50;65.66;99359.38;509260;1096;113869;-67
2021/03/07 20:43:57;;;;;;;10.57;7.00;;;;;;;0.48;65.10;99361.99;516832;1105;113774;-67
2021/03/07 20:54:01;;;;;;;10.67;6.03;;;;;;;0.49;65.34;99368.02;508031;1105;113780;-65
2021/03/07 21:04:14;;;;;;;9.40;5.75;;;;;;;0.47;65.53;99362.88;508436;1105;114315;-66
2021/03/07 21:14:18;;;;;;;9.07;5.33;;;;;;;0.40;66.22;99369.08;508638;1105;113401;-66
2021/03/07 21:24:21;;;;;;;9.80;6.43;;;;;;;0.33;66.53;99360.65;508492;1105;114287;-66
2021/03/07 21:34:33;;;;;;;11.90;7.93;;;;;;;0.31;66.40;99369.34;508874;1105;114012;-66
2021/03/07 21:44:39;;;;;;;12.78;7.03;;;;;;;0.24;66.74;99366.91;508816;1105;114019;-66
2021/03/07 21:54:42;;;;;;;11.00;6.20;;;;;;;0.13;67.53;99366.32;508764;1105;113944;-66
2021/03/07 22:04:54;;;;;;;10.20;6.60;;;;;;;0.05;68.45;99370.81;507978;1105;113621;-66
2021/03/07 22:14:59;;;;;;;10.90;6.83;;;;;;;-0.02;69.57;99372.70;508729;1105;114859;-65
2021/03/07 22:25:05;;;;;;;11.55;6.10;;;;;;;-0.07;69.94;99375.39;508375;1105;113830;-64
2021/03/07 22:35:25;;;;;;;9.60;6.70;;;;;;;-0.16;70.05;99363.56;508777;1104;114177;-68
2021/03/07 22:45:29;;;;;;;11.63;6.80;;;;;;;-0.20;71.35;99371.41;509381;1105;113954;-67
2021/03/07 22:55:32;;;;;;;10.37;5.77;;;;;;;-0.30;71.44;99361.30;509320;1105;113839;-68
2021/03/07 23:05:40;;;;;;;10.27;6.67;;;;;;;-0.33;71.97;99371.69;508817;1105;114039;-68
2021/03/07 23:15:44;;;;;;;12.07;6.87;;;;;;;-0.36;71.89;99371.77;509058;1105;113747;-69
2021/03/07 23:25:47;;;;;;;8.93;6.37;;;;;;;-0.46;73.24;99354.80;508566;1105;114463;-69
2021/03/07 23:36:04;;;;;;;11.20;7.05;;;;;;;-0.66;73.14;99355.25;508695;1105;114096;-68
2021/03/07 23:46:08;;;;;;;11.17;7.43;;;;;;;-0.68;73.06;99359.59;508343;1105;114872;-74
2021/03/07 23:56:12;;;;;;;13.50;7.47;;;;;;;-0.68;73.68;99367.33;511119;1105;113768;-73
